Kingston, Jamaica

5:54 PM EST on December 08, 2016 (GMT -0500)
Norman Manley International | | Change Station

Elev 10 ft 17.94 °N, 76.79 °W | Updated 54 minutes ago

Clear
Clear
86 °F
Feels Like 92 °F
N
15
Wind Variable Wind from SE

Today
High -- | Low -- °F
--% Chance of Precip.
Yesterday
High -- | Low -- °F
Precip. -- in
Pressure 29.92 in
Visibility 6.2 miles
Clouds Few 2200 ft
Heat Index 92 °F
Dew Point 72 °F
Humidity 62%
Rainfall 0.00 in
Snow Depth Not available.
6:26 AM 5:31 PM
Waxing Gibbous, 67% visible
METAR MKJP 082200Z 14013KT 9999 FEW022 30/22 Q1013
Pressure 29.92 in
Visibility 6.2 miles
Clouds Few 2200 ft
Heat Index 92 °F
Dew Point 72 °F
Humidity 62%
Rainfall 0.00 in
Snow Depth Not available.
6:26 AM 5:31 PM
Waxing Gibbous, 67% visible
METAR MKJP 082200Z 14013KT 9999 FEW022 30/22 Q1013

10-Day Weather Forecast

No radar image for this location.
×

Almanac

Astronomy

Dec. 08, 2016 Rise Set
Actual Time
Civil Twilight
Nautical Twilight
Astronomical Twilight
Moon
Length of Visible Light
Length of Day
Tomorrow will be .
, % of the Moon is Illuminated

Today's Extremes

Country Highs Country Lows

Community

WunderPhotos

Upload Photos

1,956,277 photos uploaded!

WunderBlog® & News

Nearby

Air Quality

  Air Quality AQ Index Pollutant
Not available.

Snow Depth

Station Depth Elevation

Earthquake Activity

City Distance Mag. Time & Date
Minimum magnitude displayed is 2.5.

Coastal Water Temperatures

Place Temperature

Stations

Nearby Weather Stations

Station Location Temp. Windchill Dew Point Humidity Wind Precip. Elev Updated Type